sensor_id;sensor_type;location;lat;lon;timestamp;P1;durP1;ratioP1;P2;durP2;ratioP2
18997;SDS011;9632;51.018;4.284;2022-11-15T00:01:48;34.00;;;17.25;;
18997;SDS011;9632;51.018;4.284;2022-11-15T00:04:13;35.58;;;17.80;;
18997;SDS011;9632;51.018;4.284;2022-11-15T00:06:39;36.67;;;18.17;;
18997;SDS011;9632;51.018;4.284;2022-11-15T00:09:05;35.08;;;18.33;;
18997;SDS011;9632;51.018;4.284;2022-11-15T00:11:30;32.97;;;17.45;;
18997;SDS011;9632;51.018;4.284;2022-11-15T00:13:56;31.98;;;17.33;;
18997;SDS011;9632;51.018;4.284;2022-11-15T00:16:23;31.15;;;15.88;;
18997;SDS011;9632;51.018;4.284;2022-11-15T00:18:49;35.47;;;18.25;;
18997;SDS011;9632;51.018;4.284;2022-11-15T00:21:15;33.90;;;18.33;;
18997;SDS011;9632;51.018;4.284;2022-11-15T00:23:42;32.95;;;16.63;;
18997;SDS011;9632;51.018;4.284;2022-11-15T00:26:11;30.85;;;16.73;;
18997;SDS011;9632;51.018;4.284;2022-11-15T00:28:38;28.85;;;16.73;;
18997;SDS011;9632;51.018;4.284;2022-11-15T00:31:04;39.53;;;17.83;;
18997;SDS011;9632;51.018;4.284;2022-11-15T00:33:34;30.48;;;16.60;;
18997;SDS011;9632;51.018;4.284;2022-11-15T00:36:00;28.95;;;16.75;;
18997;SDS011;9632;51.018;4.284;2022-11-15T00:38:31;33.92;;;17.52;;
18997;SDS011;9632;51.018;4.284;2022-11-15T00:41:02;37.15;;;17.90;;
18997;SDS011;9632;51.018;4.284;2022-11-15T00:43:28;34.72;;;17.05;;
18997;SDS011;9632;51.018;4.284;2022-11-15T00:45:54;33.97;;;17.65;;
18997;SDS011;9632;51.018;4.284;2022-11-15T00:48:20;31.95;;;16.77;;
18997;SDS011;9632;51.018;4.284;2022-11-15T00:50:46;32.08;;;16.55;;
18997;SDS011;9632;51.018;4.284;2022-11-15T00:53:11;29.13;;;15.85;;
18997;SDS011;9632;51.018;4.284;2022-11-15T00:55:37;33.33;;;16.42;;
18997;SDS011;9632;51.018;4.284;2022-11-15T00:58:02;30.42;;;15.85;;
18997;SDS011;9632;51.018;4.284;2022-11-15T01:00:28;31.58;;;15.45;;
18997;SDS011;9632;51.018;4.284;2022-11-15T01:02:54;31.90;;;15.82;;
18997;SDS011;9632;51.018;4.284;2022-11-15T01:05:20;28.45;;;14.20;;
18997;SDS011;9632;51.018;4.284;2022-11-15T01:07:45;23.52;;;13.80;;
18997;SDS011;9632;51.018;4.284;2022-11-15T01:10:11;30.50;;;13.93;;
18997;SDS011;9632;51.018;4.284;2022-11-15T01:12:37;26.02;;;13.45;;
18997;SDS011;9632;51.018;4.284;2022-11-15T01:15:03;33.03;;;14.57;;
18997;SDS011;9632;51.018;4.284;2022-11-15T01:17:30;23.27;;;13.43;;
18997;SDS011;9632;51.018;4.284;2022-11-15T01:19:55;25.75;;;13.20;;
18997;SDS011;9632;51.018;4.284;2022-11-15T01:22:21;25.33;;;13.43;;
18997;SDS011;9632;51.018;4.284;2022-11-15T01:24:47;21.30;;;12.63;;
18997;SDS011;9632;51.018;4.284;2022-11-15T01:27:15;26.58;;;12.98;;
18997;SDS011;9632;51.018;4.284;2022-11-15T01:29:40;23.67;;;13.10;;
18997;SDS011;9632;51.018;4.284;2022-11-15T01:32:06;26.85;;;13.32;;
18997;SDS011;9632;51.018;4.284;2022-11-15T01:34:31;24.05;;;13.48;;
18997;SDS011;9632;51.018;4.284;2022-11-15T01:36:57;26.27;;;13.18;;
18997;SDS011;9632;51.018;4.284;2022-11-15T01:39:23;27.50;;;13.68;;
18997;SDS011;9632;51.018;4.284;2022-11-15T01:41:49;26.75;;;13.63;;
18997;SDS011;9632;51.018;4.284;2022-11-15T01:46:56;21.73;;;13.38;;
18997;SDS011;9632;51.018;4.284;2022-11-15T01:49:23;29.77;;;14.35;;
18997;SDS011;9632;51.018;4.284;2022-11-15T01:51:52;32.83;;;14.63;;
18997;SDS011;9632;51.018;4.284;2022-11-15T01:54:20;28.20;;;14.45;;
18997;SDS011;9632;51.018;4.284;2022-11-15T01:56:55;26.38;;;13.73;;
18997;SDS011;9632;51.018;4.284;2022-11-15T01:59:28;24.35;;;12.88;;
18997;SDS011;9632;51.018;4.284;2022-11-15T02:01:54;23.95;;;13.57;;
18997;SDS011;9632;51.018;4.284;2022-11-15T02:04:21;25.52;;;12.48;;
18997;SDS011;9632;51.018;4.284;2022-11-15T02:06:50;25.80;;;12.57;;
18997;SDS011;9632;51.018;4.284;2022-11-15T02:09:16;25.92;;;12.20;;
18997;SDS011;9632;51.018;4.284;2022-11-15T02:11:42;28.63;;;12.18;;
18997;SDS011;9632;51.018;4.284;2022-11-15T02:14:10;23.70;;;11.75;;
18997;SDS011;9632;51.018;4.284;2022-11-15T02:27:13;20.60;;;10.68;;
18997;SDS011;9632;51.018;4.284;2022-11-15T02:38:37;21.02;;;10.57;;
18997;SDS011;9632;51.018;4.284;2022-11-15T02:41:11;18.85;;;10.07;;
18997;SDS011;9632;51.018;4.284;2022-11-15T02:43:47;21.63;;;10.98;;
18997;SDS011;9632;51.018;4.284;2022-11-15T02:46:23;19.42;;;10.23;;
18997;SDS011;9632;51.018;4.284;2022-11-15T02:49:24;26.02;;;11.38;;
18997;SDS011;9632;51.018;4.284;2022-11-15T02:51:53;17.95;;;9.82;;
18997;SDS011;9632;51.018;4.284;2022-11-15T02:54:22;24.35;;;10.68;;
18997;SDS011;9632;51.018;4.284;2022-11-15T02:56:49;20.25;;;10.13;;
18997;SDS011;9632;51.018;4.284;2022-11-15T03:02:52;18.95;;;11.23;;
18997;SDS011;9632;51.018;4.284;2022-11-15T03:10:29;20.40;;;10.27;;
18997;SDS011;9632;51.018;4.284;2022-11-15T03:13:07;17.02;;;9.30;;
18997;SDS011;9632;51.018;4.284;2022-11-15T03:15:59;18.75;;;9.23;;
18997;SDS011;9632;51.018;4.284;2022-11-15T03:18:33;19.30;;;9.27;;
18997;SDS011;9632;51.018;4.284;2022-11-15T03:21:03;20.67;;;9.40;;
18997;SDS011;9632;51.018;4.284;2022-11-15T03:23:32;14.50;;;7.70;;
18997;SDS011;9632;51.018;4.284;2022-11-15T03:25:59;19.77;;;8.68;;
18997;SDS011;9632;51.018;4.284;2022-11-15T03:28:32;18.73;;;8.70;;
18997;SDS011;9632;51.018;4.284;2022-11-15T03:31:01;15.93;;;8.18;;
18997;SDS011;9632;51.018;4.284;2022-11-15T03:33:50;16.80;;;8.27;;
18997;SDS011;9632;51.018;4.284;2022-11-15T03:36:18;15.98;;;7.90;;
18997;SDS011;9632;51.018;4.284;2022-11-15T03:38:45;16.77;;;7.50;;
18997;SDS011;9632;51.018;4.284;2022-11-15T03:41:21;15.52;;;7.55;;
18997;SDS011;9632;51.018;4.284;2022-11-15T03:44:06;17.80;;;7.60;;
18997;SDS011;9632;51.018;4.284;2022-11-15T03:49:32;18.58;;;7.90;;
18997;SDS011;9632;51.018;4.284;2022-11-15T03:52:00;18.92;;;7.90;;
18997;SDS011;9632;51.018;4.284;2022-11-15T03:54:28;16.15;;;7.53;;
18997;SDS011;9632;51.018;4.284;2022-11-15T03:56:54;16.52;;;7.72;;
18997;SDS011;9632;51.018;4.284;2022-11-15T03:59:20;15.00;;;7.43;;
18997;SDS011;9632;51.018;4.284;2022-11-15T04:01:46;16.45;;;7.28;;
18997;SDS011;9632;51.018;4.284;2022-11-15T04:04:11;15.82;;;7.50;;
18997;SDS011;9632;51.018;4.284;2022-11-15T04:06:37;16.65;;;6.95;;
18997;SDS011;9632;51.018;4.284;2022-11-15T04:09:03;12.32;;;6.45;;
18997;SDS011;9632;51.018;4.284;2022-11-15T04:11:29;18.35;;;6.70;;
18997;SDS011;9632;51.018;4.284;2022-11-15T04:13:54;12.93;;;6.30;;
18997;SDS011;9632;51.018;4.284;2022-11-15T04:16:20;13.25;;;6.38;;
18997;SDS011;9632;51.018;4.284;2022-11-15T04:18:45;12.70;;;5.45;;
18997;SDS011;9632;51.018;4.284;2022-11-15T04:21:31;12.32;;;5.53;;
18997;SDS011;9632;51.018;4.284;2022-11-15T04:24:15;13.68;;;6.07;;
18997;SDS011;9632;51.018;4.284;2022-11-15T04:26:41;13.02;;;6.05;;
18997;SDS011;9632;51.018;4.284;2022-11-15T04:29:06;16.38;;;5.90;;
18997;SDS011;9632;51.018;4.284;2022-11-15T04:31:51;17.15;;;6.18;;
18997;SDS011;9632;51.018;4.284;2022-11-15T04:34:16;15.27;;;6.05;;
18997;SDS011;9632;51.018;4.284;2022-11-15T04:36:42;11.93;;;5.55;;
18997;SDS011;9632;51.018;4.284;2022-11-15T04:39:26;13.25;;;5.75;;
18997;SDS011;9632;51.018;4.284;2022-11-15T04:41:51;14.75;;;6.07;;
18997;SDS011;9632;51.018;4.284;2022-11-15T04:44:17;11.82;;;6.07;;
18997;SDS011;9632;51.018;4.284;2022-11-15T04:46:43;11.80;;;5.47;;
18997;SDS011;9632;51.018;4.284;2022-11-15T04:49:08;12.13;;;5.25;;
18997;SDS011;9632;51.018;4.284;2022-11-15T04:51:34;15.07;;;5.90;;
18997;SDS011;9632;51.018;4.284;2022-11-15T04:53:59;12.50;;;5.40;;
18997;SDS011;9632;51.018;4.284;2022-11-15T04:56:25;14.60;;;5.57;;
18997;SDS011;9632;51.018;4.284;2022-11-15T04:58:51;12.48;;;5.55;;
18997;SDS011;9632;51.018;4.284;2022-11-15T05:01:16;12.13;;;5.60;;
18997;SDS011;9632;51.018;4.284;2022-11-15T05:03:42;14.00;;;5.07;;
18997;SDS011;9632;51.018;4.284;2022-11-15T05:06:27;8.43;;;5.00;;
18997;SDS011;9632;51.018;4.284;2022-11-15T05:08:53;9.82;;;4.72;;
18997;SDS011;9632;51.018;4.284;2022-11-15T05:11:19;11.05;;;4.82;;
18997;SDS011;9632;51.018;4.284;2022-11-15T05:13:45;7.78;;;4.30;;
18997;SDS011;9632;51.018;4.284;2022-11-15T05:16:11;6.65;;;4.55;;
18997;SDS011;9632;51.018;4.284;2022-11-15T05:18:36;8.10;;;4.38;;
18997;SDS011;9632;51.018;4.284;2022-11-15T05:21:06;10.30;;;4.25;;
18997;SDS011;9632;51.018;4.284;2022-11-15T05:23:32;8.70;;;4.00;;
18997;SDS011;9632;51.018;4.284;2022-11-15T05:26:00;10.80;;;4.25;;
18997;SDS011;9632;51.018;4.284;2022-11-15T05:28:26;12.63;;;3.88;;
18997;SDS011;9632;51.018;4.284;2022-11-15T05:30:52;9.40;;;4.28;;
18997;SDS011;9632;51.018;4.284;2022-11-15T05:33:17;8.35;;;3.70;;
18997;SDS011;9632;51.018;4.284;2022-11-15T05:35:46;8.88;;;3.60;;
18997;SDS011;9632;51.018;4.284;2022-11-15T05:38:16;10.77;;;4.30;;
18997;SDS011;9632;51.018;4.284;2022-11-15T05:40:42;8.25;;;3.90;;
18997;SDS011;9632;51.018;4.284;2022-11-15T05:43:07;8.30;;;3.83;;
18997;SDS011;9632;51.018;4.284;2022-11-15T05:45:34;8.40;;;3.95;;
18997;SDS011;9632;51.018;4.284;2022-11-15T05:48:03;9.52;;;3.85;;
18997;SDS011;9632;51.018;4.284;2022-11-15T05:50:31;10.23;;;4.00;;
18997;SDS011;9632;51.018;4.284;2022-11-15T05:52:58;12.00;;;3.60;;
18997;SDS011;9632;51.018;4.284;2022-11-15T05:55:24;9.02;;;3.47;;
18997;SDS011;9632;51.018;4.284;2022-11-15T05:57:50;8.25;;;2.75;;
18997;SDS011;9632;51.018;4.284;2022-11-15T06:00:15;9.27;;;3.17;;
18997;SDS011;9632;51.018;4.284;2022-11-15T06:02:41;8.32;;;2.83;;
18997;SDS011;9632;51.018;4.284;2022-11-15T06:05:07;6.45;;;2.75;;
18997;SDS011;9632;51.018;4.284;2022-11-15T06:07:33;8.63;;;3.13;;
18997;SDS011;9632;51.018;4.284;2022-11-15T06:09:58;7.72;;;2.83;;
18997;SDS011;9632;51.018;4.284;2022-11-15T06:12:24;9.27;;;3.75;;
18997;SDS011;9632;51.018;4.284;2022-11-15T06:14:49;10.15;;;3.13;;
18997;SDS011;9632;51.018;4.284;2022-11-15T06:17:15;12.98;;;3.45;;
18997;SDS011;9632;51.018;4.284;2022-11-15T06:19:41;8.02;;;3.13;;
18997;SDS011;9632;51.018;4.284;2022-11-15T06:22:06;7.97;;;3.60;;
18997;SDS011;9632;51.018;4.284;2022-11-15T06:24:32;10.25;;;3.60;;
18997;SDS011;9632;51.018;4.284;2022-11-15T06:26:57;12.27;;;4.90;;
18997;SDS011;9632;51.018;4.284;2022-11-15T06:29:24;11.40;;;5.22;;
18997;SDS011;9632;51.018;4.284;2022-11-15T06:31:49;16.92;;;6.47;;
18997;SDS011;9632;51.018;4.284;2022-11-15T06:34:15;10.77;;;6.28;;
18997;SDS011;9632;51.018;4.284;2022-11-15T06:36:40;14.88;;;6.50;;
18997;SDS011;9632;51.018;4.284;2022-11-15T06:39:06;12.05;;;5.68;;
18997;SDS011;9632;51.018;4.284;2022-11-15T06:41:34;13.18;;;6.00;;
18997;SDS011;9632;51.018;4.284;2022-11-15T06:44:00;14.27;;;5.93;;
18997;SDS011;9632;51.018;4.284;2022-11-15T06:46:27;11.32;;;5.10;;
18997;SDS011;9632;51.018;4.284;2022-11-15T06:48:52;14.73;;;5.57;;
18997;SDS011;9632;51.018;4.284;2022-11-15T06:51:18;12.43;;;5.15;;
18997;SDS011;9632;51.018;4.284;2022-11-15T06:53:44;11.07;;;4.95;;
18997;SDS011;9632;51.018;4.284;2022-11-15T06:56:10;12.43;;;4.75;;
18997;SDS011;9632;51.018;4.284;2022-11-15T06:58:36;12.07;;;5.03;;
18997;SDS011;9632;51.018;4.284;2022-11-15T07:01:03;9.25;;;4.43;;
18997;SDS011;9632;51.018;4.284;2022-11-15T07:03:30;11.80;;;4.72;;
18997;SDS011;9632;51.018;4.284;2022-11-15T07:05:56;12.75;;;4.18;;
18997;SDS011;9632;51.018;4.284;2022-11-15T07:08:23;11.55;;;3.92;;
18997;SDS011;9632;51.018;4.284;2022-11-15T07:10:49;12.15;;;4.30;;
18997;SDS011;9632;51.018;4.284;2022-11-15T07:13:15;12.05;;;3.70;;
18997;SDS011;9632;51.018;4.284;2022-11-15T07:15:41;9.10;;;3.42;;
18997;SDS011;9632;51.018;4.284;2022-11-15T07:18:06;8.48;;;3.38;;
18997;SDS011;9632;51.018;4.284;2022-11-15T07:20:32;13.07;;;3.83;;
18997;SDS011;9632;51.018;4.284;2022-11-15T07:23:04;10.32;;;3.75;;
18997;SDS011;9632;51.018;4.284;2022-11-15T07:25:30;10.18;;;3.65;;
18997;SDS011;9632;51.018;4.284;2022-11-15T07:27:57;9.23;;;3.70;;
18997;SDS011;9632;51.018;4.284;2022-11-15T07:30:23;9.88;;;3.90;;
18997;SDS011;9632;51.018;4.284;2022-11-15T07:32:54;8.75;;;3.40;;
18997;SDS011;9632;51.018;4.284;2022-11-15T07:35:20;8.27;;;3.58;;
18997;SDS011;9632;51.018;4.284;2022-11-15T07:37:52;9.45;;;3.47;;
18997;SDS011;9632;51.018;4.284;2022-11-15T07:40:19;9.75;;;3.90;;
18997;SDS011;9632;51.018;4.284;2022-11-15T07:42:45;10.85;;;4.03;;
18997;SDS011;9632;51.018;4.284;2022-11-15T07:45:22;11.07;;;3.65;;
18997;SDS011;9632;51.018;4.284;2022-11-15T07:47:50;8.75;;;3.38;;
18997;SDS011;9632;51.018;4.284;2022-11-15T07:50:17;12.60;;;3.78;;
18997;SDS011;9632;51.018;4.284;2022-11-15T07:52:43;9.07;;;4.10;;
18997;SDS011;9632;51.018;4.284;2022-11-15T07:55:09;12.23;;;4.75;;
18997;SDS011;9632;51.018;4.284;2022-11-15T07:57:35;9.10;;;4.15;;
18997;SDS011;9632;51.018;4.284;2022-11-15T08:00:01;11.18;;;3.47;;
18997;SDS011;9632;51.018;4.284;2022-11-15T08:02:27;9.02;;;4.00;;
18997;SDS011;9632;51.018;4.284;2022-11-15T08:04:53;6.80;;;3.08;;
18997;SDS011;9632;51.018;4.284;2022-11-15T08:07:19;10.50;;;3.55;;
18997;SDS011;9632;51.018;4.284;2022-11-15T08:09:44;11.25;;;3.08;;
18997;SDS011;9632;51.018;4.284;2022-11-15T08:12:10;9.10;;;3.20;;
18997;SDS011;9632;51.018;4.284;2022-11-15T08:14:35;13.48;;;4.50;;
18997;SDS011;9632;51.018;4.284;2022-11-15T08:17:01;14.45;;;4.45;;
18997;SDS011;9632;51.018;4.284;2022-11-15T08:19:27;19.27;;;6.00;;
18997;SDS011;9632;51.018;4.284;2022-11-15T08:21:52;11.63;;;4.70;;
18997;SDS011;9632;51.018;4.284;2022-11-15T08:24:18;16.17;;;3.08;;
18997;SDS011;9632;51.018;4.284;2022-11-15T08:26:43;7.68;;;2.55;;
18997;SDS011;9632;51.018;4.284;2022-11-15T08:29:09;9.45;;;2.25;;
18997;SDS011;9632;51.018;4.284;2022-11-15T08:31:35;8.02;;;2.10;;
18997;SDS011;9632;51.018;4.284;2022-11-15T08:34:01;6.70;;;2.00;;
18997;SDS011;9632;51.018;4.284;2022-11-15T08:36:27;9.48;;;2.00;;
18997;SDS011;9632;51.018;4.284;2022-11-15T08:38:53;9.38;;;2.08;;
18997;SDS011;9632;51.018;4.284;2022-11-15T08:41:24;6.80;;;2.55;;
18997;SDS011;9632;51.018;4.284;2022-11-15T08:43:53;7.93;;;2.15;;
18997;SDS011;9632;51.018;4.284;2022-11-15T08:46:18;7.40;;;1.90;;
18997;SDS011;9632;51.018;4.284;2022-11-15T08:48:44;8.73;;;2.10;;
18997;SDS011;9632;51.018;4.284;2022-11-15T08:51:10;7.70;;;2.30;;
18997;SDS011;9632;51.018;4.284;2022-11-15T08:53:35;9.80;;;3.17;;
18997;SDS011;9632;51.018;4.284;2022-11-15T08:56:01;15.98;;;2.45;;
18997;SDS011;9632;51.018;4.284;2022-11-15T08:58:27;9.20;;;2.10;;
18997;SDS011;9632;51.018;4.284;2022-11-15T09:00:53;15.25;;;2.85;;
18997;SDS011;9632;51.018;4.284;2022-11-15T09:03:19;9.07;;;2.15;;
18997;SDS011;9632;51.018;4.284;2022-11-15T09:05:45;20.45;;;2.13;;
18997;SDS011;9632;51.018;4.284;2022-11-15T09:08:10;13.55;;;2.88;;
18997;SDS011;9632;51.018;4.284;2022-11-15T09:10:37;11.90;;;1.90;;
18997;SDS011;9632;51.018;4.284;2022-11-15T09:13:03;16.08;;;2.17;;
18997;SDS011;9632;51.018;4.284;2022-11-15T09:15:29;10.10;;;1.88;;
18997;SDS011;9632;51.018;4.284;2022-11-15T09:17:57;9.73;;;2.30;;
18997;SDS011;9632;51.018;4.284;2022-11-15T09:20:24;9.85;;;1.67;;
18997;SDS011;9632;51.018;4.284;2022-11-15T09:22:49;9.07;;;1.35;;
18997;SDS011;9632;51.018;4.284;2022-11-15T09:25:15;23.40;;;6.75;;
18997;SDS011;9632;51.018;4.284;2022-11-15T09:27:41;19.23;;;5.30;;
18997;SDS011;9632;51.018;4.284;2022-11-15T09:30:06;17.05;;;4.57;;
18997;SDS011;9632;51.018;4.284;2022-11-15T09:32:32;19.95;;;6.18;;
18997;SDS011;9632;51.018;4.284;2022-11-15T09:34:58;15.20;;;3.15;;
18997;SDS011;9632;51.018;4.284;2022-11-15T09:37:23;11.38;;;2.40;;
18997;SDS011;9632;51.018;4.284;2022-11-15T09:39:49;10.15;;;2.38;;
18997;SDS011;9632;51.018;4.284;2022-11-15T09:45:20;9.82;;;1.50;;
18997;SDS011;9632;51.018;4.284;2022-11-15T09:47:57;12.55;;;2.22;;
18997;SDS011;9632;51.018;4.284;2022-11-15T09:50:34;10.13;;;1.77;;
18997;SDS011;9632;51.018;4.284;2022-11-15T09:53:12;21.92;;;2.13;;
18997;SDS011;9632;51.018;4.284;2022-11-15T09:56:00;5.88;;;1.65;;
18997;SDS011;9632;51.018;4.284;2022-11-15T10:03:56;13.05;;;2.50;;
18997;SDS011;9632;51.018;4.284;2022-11-15T10:06:24;10.85;;;2.03;;
18997;SDS011;9632;51.018;4.284;2022-11-15T10:08:54;17.45;;;5.22;;
18997;SDS011;9632;51.018;4.284;2022-11-15T10:11:32;10.25;;;2.20;;
18997;SDS011;9632;51.018;4.284;2022-11-15T10:14:25;12.70;;;3.08;;
18997;SDS011;9632;51.018;4.284;2022-11-15T10:19:43;8.02;;;2.08;;
18997;SDS011;9632;51.018;4.284;2022-11-15T10:22:24;14.82;;;2.50;;
18997;SDS011;9632;51.018;4.284;2022-11-15T10:27:33;10.25;;;1.30;;
18997;SDS011;9632;51.018;4.284;2022-11-15T10:29:59;8.25;;;1.90;;
18997;SDS011;9632;51.018;4.284;2022-11-15T10:32:25;9.88;;;2.40;;
18997;SDS011;9632;51.018;4.284;2022-11-15T10:34:51;9.25;;;2.15;;
18997;SDS011;9632;51.018;4.284;2022-11-15T10:37:27;17.45;;;2.28;;
18997;SDS011;9632;51.018;4.284;2022-11-15T10:40:04;12.95;;;1.67;;
18997;SDS011;9632;51.018;4.284;2022-11-15T10:42:31;14.27;;;3.28;;
18997;SDS011;9632;51.018;4.284;2022-11-15T10:44:57;9.40;;;2.38;;
18997;SDS011;9632;51.018;4.284;2022-11-15T10:47:24;9.07;;;2.55;;
18997;SDS011;9632;51.018;4.284;2022-11-15T10:49:57;8.25;;;1.65;;
18997;SDS011;9632;51.018;4.284;2022-11-15T10:52:45;12.15;;;1.30;;
18997;SDS011;9632;51.018;4.284;2022-11-15T10:57:37;12.88;;;3.53;;
18997;SDS011;9632;51.018;4.284;2022-11-15T11:00:25;13.23;;;3.47;;
18997;SDS011;9632;51.018;4.284;2022-11-15T11:03:04;15.80;;;2.70;;
18997;SDS011;9632;51.018;4.284;2022-11-15T11:08:03;8.15;;;1.15;;
18997;SDS011;9632;51.018;4.284;2022-11-15T11:10:30;16.17;;;3.58;;
18997;SDS011;9632;51.018;4.284;2022-11-15T11:15:52;10.52;;;2.30;;
18997;SDS011;9632;51.018;4.284;2022-11-15T11:18:33;15.13;;;4.18;;
18997;SDS011;9632;51.018;4.284;2022-11-15T11:21:11;9.57;;;1.73;;
18997;SDS011;9632;51.018;4.284;2022-11-15T11:29:14;14.07;;;3.33;;
18997;SDS011;9632;51.018;4.284;2022-11-15T11:31:53;11.82;;;2.50;;
18997;SDS011;9632;51.018;4.284;2022-11-15T11:34:45;13.35;;;3.97;;
18997;SDS011;9632;51.018;4.284;2022-11-15T11:43:26;10.48;;;2.20;;
18997;SDS011;9632;51.018;4.284;2022-11-15T11:51:09;6.85;;;1.00;;
18997;SDS011;9632;51.018;4.284;2022-11-15T11:53:57;7.75;;;1.10;;
18997;SDS011;9632;51.018;4.284;2022-11-15T11:56:36;8.02;;;1.20;;
18997;SDS011;9632;51.018;4.284;2022-11-15T11:59:28;8.05;;;1.38;;
18997;SDS011;9632;51.018;4.284;2022-11-15T12:02:11;11.02;;;1.88;;
18997;SDS011;9632;51.018;4.284;2022-11-15T12:04:42;6.22;;;0.93;;
18997;SDS011;9632;51.018;4.284;2022-11-15T12:07:15;5.43;;;1.13;;
18997;SDS011;9632;51.018;4.284;2022-11-15T12:09:46;8.45;;;1.40;;
18997;SDS011;9632;51.018;4.284;2022-11-15T12:15:19;5.13;;;0.70;;
18997;SDS011;9632;51.018;4.284;2022-11-15T12:17:49;5.90;;;0.90;;
18997;SDS011;9632;51.018;4.284;2022-11-15T12:20:22;10.60;;;1.67;;
18997;SDS011;9632;51.018;4.284;2022-11-15T12:22:55;8.10;;;1.00;;
18997;SDS011;9632;51.018;4.284;2022-11-15T12:25:31;6.35;;;0.90;;
18997;SDS011;9632;51.018;4.284;2022-11-15T12:28:13;8.32;;;2.30;;
18997;SDS011;9632;51.018;4.284;2022-11-15T12:31:15;7.63;;;2.30;;
18997;SDS011;9632;51.018;4.284;2022-11-15T12:33:41;16.52;;;4.70;;
18997;SDS011;9632;51.018;4.284;2022-11-15T12:36:09;10.02;;;2.70;;
18997;SDS011;9632;51.018;4.284;2022-11-15T12:41:39;16.33;;;3.88;;
18997;SDS011;9632;51.018;4.284;2022-11-15T12:44:13;17.88;;;3.67;;
18997;SDS011;9632;51.018;4.284;2022-11-15T12:46:59;19.20;;;5.07;;
18997;SDS011;9632;51.018;4.284;2022-11-15T13:12:55;7.72;;;1.33;;
18997;SDS011;9632;51.018;4.284;2022-11-15T13:18:19;8.65;;;2.13;;
18997;SDS011;9632;51.018;4.284;2022-11-15T13:20:48;6.07;;;1.30;;
18997;SDS011;9632;51.018;4.284;2022-11-15T13:23:15;4.75;;;1.00;;
18997;SDS011;9632;51.018;4.284;2022-11-15T13:28:42;5.05;;;1.42;;
18997;SDS011;9632;51.018;4.284;2022-11-15T13:31:21;3.30;;;1.20;;
18997;SDS011;9632;51.018;4.284;2022-11-15T13:37:02;4.00;;;1.40;;
18997;SDS011;9632;51.018;4.284;2022-11-15T13:39:29;5.72;;;1.00;;
18997;SDS011;9632;51.018;4.284;2022-11-15T13:42:01;8.55;;;1.48;;
18997;SDS011;9632;51.018;4.284;2022-11-15T13:44:28;4.53;;;0.98;;
18997;SDS011;9632;51.018;4.284;2022-11-15T13:47:03;4.18;;;0.73;;
18997;SDS011;9632;51.018;4.284;2022-11-15T13:49:37;3.53;;;1.10;;
18997;SDS011;9632;51.018;4.284;2022-11-15T13:52:04;7.38;;;2.13;;
18997;SDS011;9632;51.018;4.284;2022-11-15T13:54:37;3.88;;;1.48;;
18997;SDS011;9632;51.018;4.284;2022-11-15T13:57:09;9.25;;;2.83;;
18997;SDS011;9632;51.018;4.284;2022-11-15T13:59:48;11.60;;;2.13;;
18997;SDS011;9632;51.018;4.284;2022-11-15T14:02:18;3.75;;;1.48;;
18997;SDS011;9632;51.018;4.284;2022-11-15T14:04:46;12.77;;;1.50;;
18997;SDS011;9632;51.018;4.284;2022-11-15T14:07:19;9.20;;;2.60;;
18997;SDS011;9632;51.018;4.284;2022-11-15T14:09:47;7.80;;;1.20;;
18997;SDS011;9632;51.018;4.284;2022-11-15T14:14:56;6.70;;;1.70;;
18997;SDS011;9632;51.018;4.284;2022-11-15T14:19:54;10.02;;;3.67;;
18997;SDS011;9632;51.018;4.284;2022-11-15T14:22:22;8.40;;;2.67;;
18997;SDS011;9632;51.018;4.284;2022-11-15T14:27:44;5.97;;;2.22;;
18997;SDS011;9632;51.018;4.284;2022-11-15T14:30:41;5.05;;;1.52;;
18997;SDS011;9632;51.018;4.284;2022-11-15T14:33:18;2.83;;;1.10;;
18997;SDS011;9632;51.018;4.284;2022-11-15T14:35:50;3.38;;;1.15;;
18997;SDS011;9632;51.018;4.284;2022-11-15T14:38:17;3.17;;;1.20;;
18997;SDS011;9632;51.018;4.284;2022-11-15T14:40:43;12.10;;;1.45;;
18997;SDS011;9632;51.018;4.284;2022-11-15T14:43:12;6.38;;;1.17;;
18997;SDS011;9632;51.018;4.284;2022-11-15T14:45:38;9.90;;;2.30;;
18997;SDS011;9632;51.018;4.284;2022-11-15T14:48:04;8.48;;;1.85;;
18997;SDS011;9632;51.018;4.284;2022-11-15T14:50:31;4.00;;;1.50;;
18997;SDS011;9632;51.018;4.284;2022-11-15T14:52:57;2.47;;;0.70;;
18997;SDS011;9632;51.018;4.284;2022-11-15T14:55:24;3.58;;;1.05;;
18997;SDS011;9632;51.018;4.284;2022-11-15T14:57:52;12.23;;;1.27;;
18997;SDS011;9632;51.018;4.284;2022-11-15T15:00:18;4.20;;;1.00;;
18997;SDS011;9632;51.018;4.284;2022-11-15T15:02:45;9.45;;;2.08;;
18997;SDS011;9632;51.018;4.284;2022-11-15T15:05:21;7.78;;;3.15;;
18997;SDS011;9632;51.018;4.284;2022-11-15T15:07:48;6.22;;;1.90;;
18997;SDS011;9632;51.018;4.284;2022-11-15T15:10:15;3.30;;;0.90;;
18997;SDS011;9632;51.018;4.284;2022-11-15T15:12:42;4.88;;;1.45;;
18997;SDS011;9632;51.018;4.284;2022-11-15T15:15:19;8.65;;;1.52;;
18997;SDS011;9632;51.018;4.284;2022-11-15T15:17:49;5.82;;;1.20;;
18997;SDS011;9632;51.018;4.284;2022-11-15T15:20:14;10.00;;;2.67;;
18997;SDS011;9632;51.018;4.284;2022-11-15T15:22:41;6.95;;;3.10;;
18997;SDS011;9632;51.018;4.284;2022-11-15T15:25:28;5.38;;;1.77;;
18997;SDS011;9632;51.018;4.284;2022-11-15T15:27:55;2.97;;;1.40;;
18997;SDS011;9632;51.018;4.284;2022-11-15T15:30:21;5.82;;;1.73;;
18997;SDS011;9632;51.018;4.284;2022-11-15T15:32:48;4.05;;;1.50;;
18997;SDS011;9632;51.018;4.284;2022-11-15T15:35:14;4.68;;;1.38;;
18997;SDS011;9632;51.018;4.284;2022-11-15T15:37:41;9.30;;;1.83;;
18997;SDS011;9632;51.018;4.284;2022-11-15T15:40:10;3.63;;;1.30;;
18997;SDS011;9632;51.018;4.284;2022-11-15T15:42:39;5.60;;;1.95;;
18997;SDS011;9632;51.018;4.284;2022-11-15T15:45:04;5.97;;;1.63;;
18997;SDS011;9632;51.018;4.284;2022-11-15T15:47:30;7.93;;;1.73;;
18997;SDS011;9632;51.018;4.284;2022-11-15T15:49:56;4.55;;;1.98;;
18997;SDS011;9632;51.018;4.284;2022-11-15T15:52:22;5.20;;;1.70;;
18997;SDS011;9632;51.018;4.284;2022-11-15T15:54:47;3.42;;;1.70;;
18997;SDS011;9632;51.018;4.284;2022-11-15T15:57:13;3.33;;;1.70;;
18997;SDS011;9632;51.018;4.284;2022-11-15T15:59:39;3.72;;;1.70;;
18997;SDS011;9632;51.018;4.284;2022-11-15T16:02:05;8.35;;;2.10;;
18997;SDS011;9632;51.018;4.284;2022-11-15T16:04:31;8.40;;;2.65;;
18997;SDS011;9632;51.018;4.284;2022-11-15T16:07:00;4.72;;;2.08;;
18997;SDS011;9632;51.018;4.284;2022-11-15T16:09:26;6.45;;;1.95;;
18997;SDS011;9632;51.018;4.284;2022-11-15T16:12:11;7.72;;;3.50;;
18997;SDS011;9632;51.018;4.284;2022-11-15T16:14:36;4.40;;;2.25;;
18997;SDS011;9632;51.018;4.284;2022-11-15T16:17:02;5.07;;;2.33;;
18997;SDS011;9632;51.018;4.284;2022-11-15T16:19:28;6.20;;;2.50;;
18997;SDS011;9632;51.018;4.284;2022-11-15T16:21:54;5.40;;;2.38;;
18997;SDS011;9632;51.018;4.284;2022-11-15T16:24:20;4.45;;;2.05;;
18997;SDS011;9632;51.018;4.284;2022-11-15T16:26:46;4.60;;;2.50;;
18997;SDS011;9632;51.018;4.284;2022-11-15T16:29:13;5.28;;;2.33;;
18997;SDS011;9632;51.018;4.284;2022-11-15T16:31:39;5.95;;;3.00;;
18997;SDS011;9632;51.018;4.284;2022-11-15T16:34:05;3.63;;;2.05;;
18997;SDS011;9632;51.018;4.284;2022-11-15T16:36:32;6.18;;;2.58;;
18997;SDS011;9632;51.018;4.284;2022-11-15T16:38:59;4.65;;;2.40;;
18997;SDS011;9632;51.018;4.284;2022-11-15T16:41:28;4.70;;;2.42;;
18997;SDS011;9632;51.018;4.284;2022-11-15T16:43:54;5.05;;;2.38;;
18997;SDS011;9632;51.018;4.284;2022-11-15T16:46:21;3.83;;;2.20;;
18997;SDS011;9632;51.018;4.284;2022-11-15T16:48:49;5.22;;;2.20;;
18997;SDS011;9632;51.018;4.284;2022-11-15T16:51:15;6.78;;;2.40;;
18997;SDS011;9632;51.018;4.284;2022-11-15T16:53:41;4.57;;;2.25;;
18997;SDS011;9632;51.018;4.284;2022-11-15T16:56:13;6.50;;;2.33;;
18997;SDS011;9632;51.018;4.284;2022-11-15T16:58:40;5.43;;;2.53;;
18997;SDS011;9632;51.018;4.284;2022-11-15T17:01:10;7.45;;;2.65;;